JFA3367 SBSG-SBFN
Flight info
| Callsign | JFA3367 |
|---|---|
| Flight time | N/A |
| Altitude | 15000 |
| Route | ILMIG W40 NISBU |
| Aircraft | AT76/M-SDFGIRY/S |
Departure
| Time | N/A |
|---|---|
| Airport | Rio Grande do Norte/São Gonçalo do Amarante–Governador Aluízio Alves International Airport (SBSG) |
Arrival
| Time | 2026-04-21 17:06 |
|---|---|
| Airport | Fernando de Noronha Airport (SBFN) |
| Time | Latitude | Longitude | Altitude | Speed | Heading |
|---|---|---|---|---|---|
| 2026-04-21 16:55 | -4.09569 | -32.84112 | 11788 ft | 290 kts | 46° |
| 2026-04-21 16:55 | -4.07675 | -32.82220 | 11310 ft | 290 kts | 46° |
| 2026-04-21 16:56 | -4.06244 | -32.80794 | 10953 ft | 289 kts | 47° |
| 2026-04-21 16:56 | -4.05283 | -32.79829 | 10717 ft | 289 kts | 46° |
| 2026-04-21 16:56 | -4.03874 | -32.78424 | 10377 ft | 289 kts | 46° |
| 2026-04-21 16:56 | -4.02913 | -32.77472 | 10157 ft | 287 kts | 46° |
| 2026-04-21 16:57 | -4.01756 | -32.76317 | 9793 ft | 287 kts | 46° |
| 2026-04-21 16:57 | -4.01431 | -32.75992 | 9672 ft | 286 kts | 47° |
| 2026-04-21 16:57 | -4.00436 | -32.74994 | 9304 ft | 284 kts | 47° |
| 2026-04-21 16:57 | -3.99038 | -32.73603 | 8808 ft | 281 kts | 46° |
| 2026-04-21 16:58 | -3.97659 | -32.72231 | 8317 ft | 277 kts | 46° |
| 2026-04-21 16:58 | -3.96307 | -32.70883 | 7749 ft | 273 kts | 46° |
| 2026-04-21 16:58 | -3.94967 | -32.69552 | 7155 ft | 271 kts | 46° |
| 2026-04-21 16:58 | -3.93660 | -32.68250 | 6576 ft | 254 kts | 48° |
| 2026-04-21 16:59 | -3.92386 | -32.67138 | 5960 ft | 235 kts | 33° |
| 2026-04-21 16:59 | -3.90938 | -32.66450 | 5357 ft | 227 kts | 25° |
| 2026-04-21 16:59 | -3.89504 | -32.65870 | 4759 ft | 224 kts | 24° |
| 2026-04-21 16:59 | -3.88068 | -32.65298 | 4155 ft | 220 kts | 25° |
| 2026-04-21 17:00 | -3.86696 | -32.64723 | 3804 ft | 206 kts | 26° |
| 2026-04-21 17:00 | -3.85395 | -32.64124 | 3644 ft | 204 kts | 30° |
| 2026-04-21 17:00 | -3.84428 | -32.63175 | 3535 ft | 195 kts | 69° |
| 2026-04-21 17:00 | -3.84096 | -32.61855 | 3361 ft | 198 kts | 84° |
| 2026-04-21 17:01 | -3.84003 | -32.60481 | 3191 ft | 196 kts | 92° |
| 2026-04-21 17:01 | -3.84065 | -32.59141 | 3022 ft | 187 kts | 96° |
| 2026-04-21 17:01 | -3.84168 | -32.57913 | 2841 ft | 168 kts | 97° |
| 2026-04-21 17:01 | -3.84271 | -32.56782 | 2670 ft | 161 kts | 97° |
| 2026-04-21 17:02 | -3.84307 | -32.56406 | 2631 ft | 159 kts | 97° |
| 2026-04-21 17:02 | -3.84462 | -32.54649 | 2426 ft | 150 kts | 96° |
| 2026-04-21 17:02 | -3.84553 | -32.53598 | 2229 ft | 152 kts | 97° |
| 2026-04-21 17:02 | -3.84652 | -32.52548 | 2031 ft | 152 kts | 96° |
| 2026-04-21 17:03 | -3.84750 | -32.51496 | 1830 ft | 152 kts | 97° |
| 2026-04-21 17:03 | -3.84834 | -32.50467 | 1624 ft | 148 kts | 96° |
| 2026-04-21 17:03 | -3.84911 | -32.49480 | 1428 ft | 136 kts | 96° |
| 2026-04-21 17:03 | -3.84982 | -32.48606 | 1283 ft | 117 kts | 96° |
| 2026-04-21 17:04 | -3.85039 | -32.47817 | 1104 ft | 110 kts | 95° |
| 2026-04-21 17:04 | -3.85084 | -32.47060 | 951 ft | 108 kts | 96° |
| 2026-04-21 17:04 | -3.85143 | -32.46304 | 837 ft | 109 kts | 95° |
| 2026-04-21 17:04 | -3.85197 | -32.45548 | 716 ft | 110 kts | 96° |
| 2026-04-21 17:05 | -3.85248 | -32.44786 | 593 ft | 110 kts | 97° |
| 2026-04-21 17:05 | -3.85314 | -32.44007 | 449 ft | 113 kts | 95° |
| 2026-04-21 17:05 | -3.85371 | -32.43238 | 257 ft | 113 kts | 98° |
| 2026-04-21 17:05 | -3.85412 | -32.42756 | 181 ft | 104 kts | 99° |
| 2026-04-21 17:06 | -3.85445 | -32.42393 | 185 ft | 40 kts | 91° |
| 2026-04-21 17:06 | -3.85455 | -32.42189 | 193 ft | 23 kts | 94° |
| 2026-04-21 17:06 | -3.85476 | -32.42079 | 207 ft | 6 kts | 107° |
| 2026-04-21 17:06 | -3.85460 | -32.42069 | 203 ft | 6 kts | 353° |
| 2026-04-21 17:07 | -3.85455 | -32.42152 | 200 ft | 22 kts | 271° |
| 2026-04-21 17:07 | -3.85445 | -32.42305 | 193 ft | 22 kts | 275° |
| 2026-04-21 17:07 | -3.85433 | -32.42455 | 192 ft | 21 kts | 274° |
| 2026-04-21 17:07 | -3.85423 | -32.42594 | 183 ft | 20 kts | 275° |
| 2026-04-21 17:08 | -3.85415 | -32.42703 | 180 ft | 4 kts | 275° |
| 2026-04-21 17:08 | -3.85411 | -32.42751 | 180 ft | 10 kts | 274° |
| 2026-04-21 17:08 | -3.85411 | -32.42771 | 180 ft | 0 kts | 257° |
| 2026-04-21 17:09 | -3.85414 | -32.42811 | 181 ft | 14 kts | 278° |
| 2026-04-21 17:09 | -3.85396 | -32.42950 | 188 ft | 21 kts | 273° |
| 2026-04-21 17:09 | -3.85419 | -32.42987 | 197 ft | 7 kts | 198° |
| 2026-04-21 17:10 | -3.85478 | -32.42963 | 182 ft | 0 kts | 144° |
| 2026-04-21 17:10 | -3.85481 | -32.42960 | 181 ft | 4 kts | 144° |
| 2026-04-21 17:11 | -3.85531 | -32.42925 | 172 ft | 9 kts | 145° |
| 2026-04-21 17:11 | -3.85538 | -32.42920 | 168 ft | 0 kts | 148° |